Time;durP1;ratioP1;P1;durP2;ratioP2;P2;SDS_P1;SDS_P2;PMS_P1;PMS_P2;Temp;Humidity;BMP_temperature;BMP_pressure;BME280_temperature;BME280_humidity;BME280_pressure;Samples;Min_cycle;Max_cycle;Signal;HPM_P1;HPM_P2
2023/02/14 00:01:16;;;;;;;12.15;5.80;;;3.40;99.90;;;;;;5042054;28;20396;-69
2023/02/14 00:03:42;;;;;;;14.40;6.53;;;3.30;99.90;;;;;;5029527;28;20032;-70
2023/02/14 00:06:12;;;;;;;14.88;6.47;;;3.30;99.90;;;;;;5024040;28;20048;-69
2023/02/14 00:08:39;;;;;;;25.63;8.40;;;3.20;99.90;;;;;;5027712;28;20088;-70
2023/02/14 00:11:07;;;;;;;13.52;5.88;;;3.20;99.90;;;;;;5011101;28;20443;-70
2023/02/14 00:13:33;;;;;;;11.85;6.50;;;3.20;99.90;;;;;;5030098;28;20112;-70
2023/02/14 00:15:59;;;;;;;13.20;4.88;;;3.20;99.90;;;;;;5038365;28;20121;-70
2023/02/14 00:19:01;;;;;;;12.57;5.97;;;3.30;99.90;;;;;;5038890;28;20040;-70
2023/02/14 00:21:11;;;;;;;20.13;7.68;;;3.30;99.90;;;;;;5031615;28;20033;-69
2023/02/14 00:23:37;;;;;;;12.75;5.40;;;3.20;99.90;;;;;;4995770;28;20026;-70
2023/02/14 00:26:02;;;;;;;19.10;7.32;;;3.20;99.90;;;;;;5029215;28;20033;-70
2023/02/14 00:28:28;;;;;;;11.73;6.05;;;3.20;99.90;;;;;;5048490;28;20025;-70
2023/02/14 00:30:56;;;;;;;12.95;6.20;;;3.20;99.90;;;;;;5042446;28;20112;-70
2023/02/14 00:33:22;;;;;;;14.65;7.18;;;3.10;99.90;;;;;;5030033;28;20167;-69
2023/02/14 00:35:48;;;;;;;18.63;5.47;;;3.10;99.90;;;;;;5038058;28;20060;-70
2023/02/14 00:38:14;;;;;;;13.90;6.18;;;3.00;99.90;;;;;;5034466;28;20025;-70
2023/02/14 00:40:39;;;;;;;12.95;6.15;;;3.00;99.90;;;;;;5037697;28;20060;-70
2023/02/14 00:43:05;;;;;;;12.77;5.25;;;3.00;99.90;;;;;;5037417;28;20057;-69
2023/02/14 00:45:31;;;;;;;14.70;7.63;;;3.00;99.90;;;;;;5043682;28;20044;-70
2023/02/14 00:47:56;;;;;;;16.35;6.80;;;2.90;99.90;;;;;;5045457;28;20061;-70
2023/02/14 00:50:22;;;;;;;11.07;6.05;;;2.80;99.90;;;;;;5022813;28;20060;-70
2023/02/14 00:52:48;;;;;;;16.25;6.95;;;2.80;99.90;;;;;;5033070;28;20100;-70
2023/02/14 00:55:13;;;;;;;14.27;7.00;;;2.80;99.90;;;;;;5030609;28;20147;-70
2023/02/14 00:57:39;;;;;;;11.88;5.78;;;2.80;99.90;;;;;;5043704;28;20062;-70
2023/02/14 01:00:06;;;;;;;16.15;6.35;;;2.80;99.90;;;;;;5042422;28;20033;-69
2023/02/14 01:02:32;;;;;;;16.00;6.15;;;2.70;99.90;;;;;;5044149;28;20412;-71
2023/02/14 01:04:57;;;;;;;15.75;6.20;;;2.60;99.90;;;;;;5051691;28;20045;-70
2023/02/14 01:07:23;;;;;;;15.55;7.47;;;2.60;99.90;;;;;;5026670;28;20036;-71
2023/02/14 01:09:49;;;;;;;13.65;5.70;;;2.50;99.90;;;;;;5051611;28;20115;-70
2023/02/14 01:12:14;;;;;;;13.68;5.72;;;2.30;99.90;;;;;;5041949;28;20037;-70
2023/02/14 01:14:40;;;;;;;17.83;6.70;;;2.20;99.90;;;;;;5040658;28;20025;-70
2023/02/14 01:17:06;;;;;;;14.77;6.05;;;2.20;99.90;;;;;;5026535;28;20055;-70
2023/02/14 01:19:31;;;;;;;12.90;5.40;;;2.10;99.90;;;;;;5045221;28;20045;-71
2023/02/14 01:21:57;;;;;;;15.23;7.35;;;2.00;99.90;;;;;;5041408;28;20135;-70
2023/02/14 01:24:25;;;;;;;13.40;5.45;;;2.10;99.90;;;;;;5033566;28;20037;-70
2023/02/14 01:26:50;;;;;;;9.75;5.25;;;2.20;99.90;;;;;;5035982;28;20108;-70
2023/02/14 01:29:16;;;;;;;14.02;7.15;;;2.20;99.90;;;;;;5022171;28;20140;-70
2023/02/14 01:31:43;;;;;;;14.27;5.90;;;2.10;99.90;;;;;;5040191;28;20029;-69
2023/02/14 01:34:09;;;;;;;11.80;5.07;;;1.70;99.90;;;;;;5034464;28;20025;-69
2023/02/14 01:36:37;;;;;;;13.07;6.15;;;1.50;99.90;;;;;;5043248;28;20025;-70
2023/02/14 01:39:09;;;;;;;9.70;4.65;;;1.60;99.90;;;;;;5034634;28;20036;-70
2023/02/14 01:41:38;;;;;;;9.40;3.88;;;1.50;99.90;;;;;;5021046;28;20079;-70
2023/02/14 01:44:25;;;;;;;9.63;4.78;;;1.50;99.90;;;;;;5030159;28;20040;-70
2023/02/14 01:46:51;;;;;;;12.27;5.50;;;1.50;99.90;;;;;;5043329;28;20036;-70
2023/02/14 01:49:34;;;;;;;15.50;4.65;;;1.40;99.90;;;;;;5024288;28;20098;-70
2023/02/14 01:52:13;;;;;;;14.82;7.68;;;1.40;99.90;;;;;;5026611;28;20072;-69
2023/02/14 01:54:50;;;;;;;17.55;5.65;;;1.40;99.90;;;;;;5028314;28;20064;-70
2023/02/14 01:57:19;;;;;;;6.80;4.40;;;1.40;99.90;;;;;;5040268;28;20440;-70
2023/02/14 02:02:50;;;;;;;11.15;6.03;;;1.40;99.90;;;;;;5022148;28;20487;-70
2023/02/14 02:05:22;;;;;;;14.00;5.60;;;1.20;99.90;;;;;;5029335;28;20048;-69
2023/02/14 02:07:54;;;;;;;9.73;3.83;;;1.10;99.90;;;;;;5020562;28;20509;-70
2023/02/14 02:10:20;;;;;;;11.50;3.83;;;1.00;99.90;;;;;;5014916;23;20061;-69
2023/02/14 02:12:49;;;;;;;14.95;5.65;;;0.90;99.90;;;;;;5003134;28;20488;-69
2023/02/14 02:15:15;;;;;;;19.35;7.22;;;0.90;99.90;;;;;;5004952;28;20076;-69
2023/02/14 02:17:52;;;;;;;12.25;4.97;;;0.80;99.90;;;;;;4987450;28;20038;-69
2023/02/14 02:20:55;;;;;;;14.20;5.88;;;0.80;99.90;;;;;;5010280;28;20061;-70
2023/02/14 02:24:06;;;;;;;16.60;6.07;;;0.90;99.90;;;;;;5004910;28;20036;-70
2023/02/14 02:27:06;;;;;;;8.50;4.50;;;0.90;99.90;;;;;;5015483;28;20044;-70
2023/02/14 02:29:51;;;;;;;14.27;5.03;;;0.90;99.90;;;;;;5018283;28;20514;-70
2023/02/14 02:32:55;;;;;;;11.40;5.35;;;1.00;99.90;;;;;;5008512;28;20029;-70
2023/02/14 02:36:30;;;;;;;9.05;3.83;;;0.90;99.90;;;;;;4992199;28;20045;-70
2023/02/14 02:39:44;;;;;;;15.95;6.80;;;0.70;99.90;;;;;;5016062;28;20098;-71
2023/02/14 02:42:51;;;;;;;12.68;5.32;;;0.40;99.90;;;;;;5014498;28;20037;-70
2023/02/14 02:48:49;;;;;;;10.75;6.00;;;0.60;99.90;;;;;;5012952;28;20040;-70
2023/02/14 02:54:52;;;;;;;11.32;4.97;;;0.60;99.90;;;;;;5020670;28;20030;-70
2023/02/14 02:57:26;;;;;;;17.85;5.00;;;0.50;99.90;;;;;;5008199;28;20029;-70
2023/02/14 02:59:54;;;;;;;7.82;4.78;;;0.30;99.90;;;;;;4999973;28;20086;-71
2023/02/14 03:02:31;;;;;;;13.63;5.68;;;0.30;99.90;;;;;;4994141;28;20026;-70
2023/02/14 03:05:04;;;;;;;14.30;5.95;;;0.30;99.90;;;;;;4982957;28;20030;-70
2023/02/14 03:07:39;;;;;;;10.05;4.60;;;0.30;99.90;;;;;;4996101;28;20103;-70
2023/02/14 03:10:18;;;;;;;10.05;4.82;;;0.30;99.90;;;;;;5028513;28;20045;-70
2023/02/14 03:13:24;;;;;;;16.63;7.32;;;0.30;99.90;;;;;;5016308;28;20416;-70
2023/02/14 03:16:22;;;;;;;11.73;5.32;;;0.50;99.90;;;;;;5003367;28;20037;-70
2023/02/14 03:19:15;;;;;;;17.95;7.18;;;0.50;99.90;;;;;;5014107;28;20068;-70
2023/02/14 03:22:04;;;;;;;8.35;4.75;;;0.60;99.90;;;;;;5016123;28;20465;-69
2023/02/14 03:24:55;;;;;;;9.77;5.43;;;0.70;99.90;;;;;;5005547;28;20060;-70
2023/02/14 03:27:55;;;;;;;14.67;6.27;;;0.60;99.90;;;;;;4999491;28;20031;-70
2023/02/14 03:31:08;;;;;;;12.57;6.03;;;0.80;99.90;;;;;;4990995;28;20049;-70
2023/02/14 03:34:20;;;;;;;12.45;5.15;;;0.90;99.90;;;;;;4897488;29;20373;-70
2023/02/14 03:37:10;;;;;;;13.55;6.90;;;0.80;99.90;;;;;;5002551;28;20038;-70
2023/02/14 03:40:25;;;;;;;14.35;7.43;;;0.70;99.90;;;;;;5001072;28;20072;-70
2023/02/14 03:42:57;;;;;;;11.20;6.72;;;0.70;99.90;;;;;;5002708;28;20026;-69
2023/02/14 03:45:31;;;;;;;14.80;7.13;;;0.60;99.90;;;;;;4974044;28;20034;-70
2023/02/14 03:48:03;;;;;;;15.80;7.22;;;0.60;99.90;;;;;;4994765;28;20029;-70
2023/02/14 03:50:31;;;;;;;15.52;5.38;;;0.50;99.90;;;;;;5013120;28;20041;-70
2023/02/14 03:52:58;;;;;;;13.10;5.40;;;0.50;99.90;;;;;;5017663;28;20024;-70
2023/02/14 03:55:50;;;;;;;12.40;6.00;;;0.60;99.90;;;;;;5012773;28;20033;-70
2023/02/14 03:58:31;;;;;;;14.88;5.65;;;0.60;99.90;;;;;;4999067;28;20040;-70
2023/02/14 04:01:23;;;;;;;12.27;7.47;;;0.70;99.90;;;;;;4979327;28;20501;-70
2023/02/14 04:03:54;;;;;;;18.60;8.52;;;0.70;99.90;;;;;;4993959;28;20509;-70
2023/02/14 04:06:20;;;;;;;23.87;6.87;;;0.70;99.90;;;;;;5001330;28;20485;-70
2023/02/14 04:08:45;;;;;;;11.50;6.00;;;0.70;99.90;;;;;;5017678;28;20316;-69
2023/02/14 04:11:12;;;;;;;18.05;7.15;;;0.60;99.90;;;;;;4991115;28;20030;-70
2023/02/14 04:13:38;;;;;;;11.35;5.80;;;0.60;99.90;;;;;;5000718;28;20037;-70
2023/02/14 04:16:05;;;;;;;19.67;7.53;;;0.60;99.90;;;;;;4981033;28;20673;-70
2023/02/14 04:21:15;;;;;;;16.80;7.97;;;0.40;99.90;;;;;;4982670;28;20045;-70
2023/02/14 04:23:41;;;;;;;21.63;7.80;;;0.40;99.90;;;;;;5000358;28;20041;-69
2023/02/14 04:26:08;;;;;;;16.05;5.15;;;0.40;99.90;;;;;;5013411;28;20033;-69
2023/02/14 04:28:34;;;;;;;14.23;7.40;;;0.30;99.90;;;;;;5003936;28;20037;-69
2023/02/14 04:31:03;;;;;;;18.15;8.90;;;0.30;99.90;;;;;;5000192;28;20445;-69
2023/02/14 04:33:29;;;;;;;14.18;7.25;;;0.20;99.90;;;;;;5012372;28;20025;-69
2023/02/14 04:35:55;;;;;;;15.23;6.43;;;0.20;99.90;;;;;;5023399;28;20044;-69
2023/02/14 04:38:21;;;;;;;20.02;7.05;;;0.20;99.90;;;;;;5013706;28;20465;-69
2023/02/14 04:40:50;;;;;;;13.07;5.55;;;0.20;99.90;;;;;;5019976;28;20124;-69
2023/02/14 04:43:17;;;;;;;20.63;6.70;;;0.20;99.90;;;;;;5005193;28;20026;-70
2023/02/14 04:45:43;;;;;;;19.30;7.70;;;0.20;99.90;;;;;;5001210;28;20059;-70
2023/02/14 04:48:09;;;;;;;19.67;8.10;;;0.20;99.90;;;;;;5024197;28;20029;-70
2023/02/14 04:50:35;;;;;;;10.32;5.32;;;0.20;99.90;;;;;;5009032;28;20030;-70
2023/02/14 04:53:01;;;;;;;24.27;10.13;;;0.20;99.90;;;;;;4989533;28;20805;-70
2023/02/14 04:55:26;;;;;;;17.17;8.07;;;0.30;99.90;;;;;;4995685;28;20022;-70
2023/02/14 04:57:52;;;;;;;14.38;7.47;;;0.30;99.90;;;;;;5028271;28;20251;-71
2023/02/14 05:00:19;;;;;;;17.30;6.82;;;0.30;99.90;;;;;;5012929;28;20030;-71
2023/02/14 05:02:44;;;;;;;17.83;9.52;;;0.30;99.90;;;;;;5020166;28;20030;-70
2023/02/14 05:05:10;;;;;;;14.80;7.75;;;0.40;99.90;;;;;;5025561;28;20091;-69
2023/02/14 05:07:36;;;;;;;20.02;7.50;;;0.40;99.90;;;;;;5001041;28;20034;-71
2023/02/14 05:10:04;;;;;;;17.60;8.63;;;0.40;99.90;;;;;;5021554;28;20034;-69
2023/02/14 05:12:31;;;;;;;17.70;7.75;;;0.40;99.90;;;;;;4984946;28;20501;-68
2023/02/14 05:14:56;;;;;;;12.88;6.75;;;0.30;99.90;;;;;;4995467;28;20028;-69
2023/02/14 05:17:22;;;;;;;22.73;9.32;;;0.40;99.90;;;;;;5012480;28;20022;-69
2023/02/14 05:19:48;;;;;;;22.95;7.00;;;0.30;99.90;;;;;;5019999;28;20053;-69
2023/02/14 05:22:14;;;;;;;14.57;6.32;;;0.40;99.90;;;;;;5031720;28;20061;-69
2023/02/14 05:24:40;;;;;;;15.25;7.50;;;0.40;99.90;;;;;;5026898;28;20029;-70
2023/02/14 05:27:06;;;;;;;16.02;8.27;;;0.40;99.90;;;;;;5031656;28;20040;-70
2023/02/14 05:29:32;;;;;;;15.30;8.32;;;0.30;99.90;;;;;;5023273;28;20129;-70
2023/02/14 05:31:58;;;;;;;15.63;7.63;;;0.30;99.90;;;;;;5013838;28;20110;-70
2023/02/14 05:34:24;;;;;;;107.60;51.55;;;0.30;99.90;;;;;;5020138;28;20034;-69
2023/02/14 05:36:50;;;;;;;73.72;37.17;;;0.80;99.90;;;;;;5020613;28;20061;-71
2023/02/14 05:39:16;;;;;;;18.85;10.02;;;0.70;99.90;;;;;;5006991;28;20033;-70
2023/02/14 05:41:41;;;;;;;19.38;9.55;;;0.60;99.90;;;;;;4999589;28;20021;-70
2023/02/14 05:44:07;;;;;;;27.17;9.38;;;0.60;99.90;;;;;;5013565;28;20022;-71
2023/02/14 05:46:33;;;;;;;12.65;7.75;;;0.50;99.90;;;;;;5010433;28;20382;-70
2023/02/14 05:48:59;;;;;;;48.35;14.55;;;0.50;99.90;;;;;;5012456;28;20437;-70
2023/02/14 05:51:24;;;;;;;26.40;9.65;;;0.40;99.90;;;;;;5007194;28;20022;-70
2023/02/14 05:53:50;;;;;;;20.70;10.73;;;0.30;99.90;;;;;;5012349;28;20392;-71
2023/02/14 05:56:19;;;;;;;49.13;6.68;;;0.30;99.90;;;;;;5017090;28;20025;-70
2023/02/14 05:58:45;;;;;;;26.80;8.23;;;0.10;99.90;;;;;;5025404;28;20720;-73
2023/02/14 06:01:10;;;;;;;22.42;7.40;;;0.30;99.90;;;;;;4991899;28;20234;-75
2023/02/14 06:03:36;;;;;;;11.95;5.50;;;0.40;99.90;;;;;;5015485;28;20037;-73
2023/02/14 06:06:02;;;;;;;16.30;6.40;;;0.30;99.90;;;;;;5014501;28;20049;-69
2023/02/14 06:08:27;;;;;;;16.88;7.68;;;0.20;99.90;;;;;;5005174;28;20444;-69
2023/02/14 06:10:53;;;;;;;16.42;6.93;;;0.20;99.90;;;;;;5008748;28;20383;-71
2023/02/14 06:13:19;;;;;;;21.30;7.13;;;0.30;99.90;;;;;;5015322;28;20087;-73
2023/02/14 06:15:45;;;;;;;62.60;22.55;;;0.30;99.90;;;;;;4996983;28;20038;-71
2023/02/14 06:18:10;;;;;;;19.60;8.60;;;0.40;99.90;;;;;;5019005;28;20586;-70
2023/02/14 06:20:36;;;;;;;14.35;6.03;;;0.30;99.90;;;;;;5020252;28;20037;-71
2023/02/14 06:23:02;;;;;;;13.48;6.78;;;0.30;99.90;;;;;;5005371;28;20549;-70
2023/02/14 06:26:31;;;;;;;18.58;8.23;;;0.50;99.90;;;;;;5019537;28;20026;-69
2023/02/14 06:28:58;;;;;;;49.55;8.30;;;0.50;99.90;;;;;;4992139;28;20113;-70
2023/02/14 06:31:24;;;;;;;17.15;7.60;;;0.60;99.90;;;;;;4975324;28;20030;-69
2023/02/14 06:33:51;;;;;;;17.80;8.55;;;0.70;99.90;;;;;;5005893;28;20037;-70
2023/02/14 06:36:18;;;;;;;13.55;7.53;;;0.70;99.90;;;;;;5004621;28;20477;-70
2023/02/14 06:38:44;;;;;;;14.65;7.43;;;0.80;99.90;;;;;;5025714;28;20116;-70
2023/02/14 06:41:10;;;;;;;16.00;6.38;;;0.90;99.90;;;;;;5021232;28;20026;-70
2023/02/14 06:43:37;;;;;;;23.98;9.50;;;1.00;99.90;;;;;;5030497;28;20033;-70
2023/02/14 06:46:03;;;;;;;22.02;6.93;;;1.10;99.90;;;;;;5018954;28;20033;-70
2023/02/14 06:48:29;;;;;;;19.67;6.90;;;1.20;99.90;;;;;;5030734;28;20045;-70
2023/02/14 06:50:55;;;;;;;24.48;8.07;;;1.10;99.90;;;;;;5019530;28;20040;-69
2023/02/14 06:53:21;;;;;;;19.17;8.30;;;1.20;99.90;;;;;;4990446;28;20034;-70
2023/02/14 06:55:47;;;;;;;23.95;9.40;;;1.20;99.90;;;;;;5016357;28;20030;-70
2023/02/14 06:58:13;;;;;;;16.33;8.32;;;1.30;99.90;;;;;;5028503;28;20033;-70
2023/02/14 07:00:39;;;;;;;26.83;7.80;;;1.40;99.90;;;;;;5003769;28;20228;-69
2023/02/14 07:03:06;;;;;;;25.00;10.02;;;1.40;99.90;;;;;;5009779;28;20076;-69
2023/02/14 07:05:33;;;;;;;20.27;7.72;;;1.40;99.90;;;;;;5018588;28;20037;-69
2023/02/14 07:07:59;;;;;;;15.07;7.25;;;1.40;99.90;;;;;;5023644;28;20472;-68
2023/02/14 07:10:25;;;;;;;16.35;8.13;;;1.20;99.90;;;;;;4996007;28;20041;-69
2023/02/14 07:12:51;;;;;;;27.08;8.98;;;1.30;99.90;;;;;;5026695;28;20053;-69
2023/02/14 07:15:17;;;;;;;16.35;7.95;;;1.40;99.90;;;;;;5024433;28;20141;-70
2023/02/14 07:17:43;;;;;;;15.95;8.13;;;1.40;99.90;;;;;;5025145;28;20033;-70
2023/02/14 07:20:12;;;;;;;17.75;9.98;;;1.40;99.90;;;;;;5025540;28;20030;-69
2023/02/14 07:22:38;;;;;;;28.23;9.90;;;1.50;99.90;;;;;;5007264;28;20113;-70
2023/02/14 07:25:06;;;;;;;22.67;9.73;;;1.50;99.90;;;;;;5008645;28;20037;-69
2023/02/14 07:27:32;;;;;;;19.33;9.02;;;1.60;99.90;;;;;;5006179;28;20048;-71
2023/02/14 07:29:58;;;;;;;18.83;8.82;;;1.70;99.90;;;;;;5026718;28;20037;-71
2023/02/14 07:32:24;;;;;;;18.17;9.27;;;1.80;99.90;;;;;;5005149;28;20128;-70
2023/02/14 07:34:50;;;;;;;27.02;9.20;;;1.80;99.90;;;;;;5027198;28;20025;-75
2023/02/14 07:37:16;;;;;;;36.35;9.00;;;1.90;99.90;;;;;;4993531;28;20069;-69
2023/02/14 07:39:44;;;;;;;21.02;8.82;;;1.90;99.90;;;;;;5009970;28;20069;-70
2023/02/14 07:42:10;;;;;;;18.77;7.43;;;2.00;99.90;;;;;;5005394;28;20084;-72
2023/02/14 07:44:39;;;;;;;23.17;8.68;;;2.10;99.90;;;;;;4986681;28;20065;-71
2023/02/14 07:47:06;;;;;;;25.95;8.48;;;2.10;99.90;;;;;;5004467;28;20025;-71
2023/02/14 07:49:32;;;;;;;34.85;8.75;;;2.10;99.90;;;;;;5009574;28;20033;-72
2023/02/14 07:51:58;;;;;;;18.92;8.20;;;2.00;99.90;;;;;;5021848;28;20087;-71
2023/02/14 07:54:24;;;;;;;22.17;8.68;;;2.10;99.90;;;;;;5027038;28;20029;-71
2023/02/14 07:56:50;;;;;;;25.40;8.57;;;1.90;99.90;;;;;;5021720;28;20074;-71
2023/02/14 07:59:15;;;;;;;25.10;8.73;;;1.90;99.90;;;;;;5027093;28;20060;-71
2023/02/14 08:01:41;;;;;;;16.48;8.43;;;1.80;99.90;;;;;;5021780;28;20026;-71
2023/02/14 08:04:07;;;;;;;28.23;11.23;;;1.60;99.90;;;;;;5027005;28;20508;-71
2023/02/14 08:06:34;;;;;;;27.52;10.30;;;1.50;99.90;;;;;;5004142;28;20041;-71
2023/02/14 08:09:00;;;;;;;20.90;9.02;;;1.50;99.90;;;;;;5002699;28;20042;-71
2023/02/14 08:14:10;;;;;;;25.45;10.82;;;1.70;99.90;;;;;;4988003;28;20077;-67
2023/02/14 08:16:37;;;;;;;25.55;11.57;;;1.60;99.90;;;;;;5000699;28;20026;-70
2023/02/14 08:19:02;;;;;;;39.97;12.23;;;1.70;99.90;;;;;;4993856;28;20065;-69
2023/02/14 08:21:29;;;;;;;32.78;12.57;;;1.80;99.90;;;;;;4939266;28;20482;-69
2023/02/14 08:23:55;;;;;;;23.65;10.90;;;1.90;99.90;;;;;;4971348;28;20037;-69
2023/02/14 08:26:21;;;;;;;25.45;10.52;;;1.80;99.90;;;;;;4957915;28;20046;-69
2023/02/14 08:28:47;;;;;;;28.98;10.65;;;1.80;99.90;;;;;;4990636;28;20041;-69
2023/02/14 08:31:30;;;;;;;27.38;10.02;;;1.90;99.90;;;;;;4968709;28;20040;-69
2023/02/14 08:33:56;;;;;;;25.35;10.63;;;2.10;99.90;;;;;;4973468;28;20022;-69
2023/02/14 08:36:22;;;;;;;28.13;11.15;;;1.90;99.90;;;;;;4983666;28;20482;-69
2023/02/14 08:38:48;;;;;;;31.83;10.30;;;1.90;99.90;;;;;;4957852;28;20030;-69
2023/02/14 08:41:17;;;;;;;21.48;9.50;;;2.00;99.90;;;;;;4981446;28;20034;-69
2023/02/14 08:43:44;;;;;;;42.35;13.27;;;2.00;99.90;;;;;;4989076;28;20053;-69
2023/02/14 08:46:11;;;;;;;46.20;10.90;;;1.60;99.90;;;;;;4980308;28;20109;-69
2023/02/14 08:48:38;;;;;;;22.65;9.25;;;1.40;99.90;;;;;;4971140;28;20043;-69
2023/02/14 08:51:09;;;;;;;29.88;11.93;;;1.40;99.90;;;;;;4938362;28;20039;-69
2023/02/14 08:53:35;;;;;;;17.20;7.97;;;1.30;99.90;;;;;;4974273;28;20034;-68
2023/02/14 08:56:07;;;;;;;31.15;10.52;;;1.30;99.90;;;;;;4961725;28;20038;-68
2023/02/14 08:58:34;;;;;;;69.60;19.70;;;1.30;99.90;;;;;;4957065;28;20078;-69
2023/02/14 09:01:06;;;;;;;52.70;13.48;;;1.50;99.90;;;;;;4962086;28;20030;-69
2023/02/14 09:03:32;;;;;;;47.30;17.48;;;1.70;99.90;;;;;;4969262;28;20049;-69
2023/02/14 09:06:07;;;;;;;23.75;11.52;;;1.70;99.90;;;;;;4980122;28;20034;-69
2023/02/14 09:08:35;;;;;;;31.60;11.35;;;1.50;99.90;;;;;;4974107;28;20042;-69
2023/02/14 09:11:17;;;;;;;34.83;12.18;;;1.40;99.90;;;;;;4958340;28;20050;-69
2023/02/14 09:13:45;;;;;;;20.52;6.65;;;1.20;99.90;;;;;;4962675;28;20023;-69
2023/02/14 09:16:13;;;;;;;34.03;13.25;;;1.30;99.90;;;;;;4964481;28;20026;-69
2023/02/14 09:18:39;;;;;;;36.10;11.20;;;1.40;99.90;;;;;;4970669;28;20030;-70
2023/02/14 09:21:19;;;;;;;30.00;9.80;;;1.70;99.90;;;;;;4984231;28;20465;-70
2023/02/14 09:23:44;;;;;;;19.13;8.60;;;1.60;99.90;;;;;;4988832;28;20038;-71
2023/02/14 09:26:13;;;;;;;30.92;11.35;;;1.60;99.90;;;;;;4985900;28;20042;-70
2023/02/14 09:28:39;;;;;;;14.95;9.30;;;1.60;99.90;;;;;;4971046;28;20429;-70
2023/02/14 09:31:20;;;;;;;19.40;7.82;;;1.90;99.90;;;;;;4984206;28;20042;-71
2023/02/14 09:36:32;;;;;;;33.65;11.45;;;1.90;99.90;;;;;;4980602;28;20290;-70
2023/02/14 09:38:58;;;;;;;32.47;12.55;;;1.60;99.90;;;;;;4954477;28;20038;-70
2023/02/14 09:41:49;;;;;;;29.00;11.02;;;1.60;99.90;;;;;;4978691;28;20027;-70
2023/02/14 09:44:37;;;;;;;15.30;6.40;;;1.80;99.90;;;;;;4981952;28;20483;-70
2023/02/14 09:47:43;;;;;;;24.17;9.18;;;1.80;99.90;;;;;;4979855;28;20549;-70
2023/02/14 09:50:57;;;;;;;27.85;9.15;;;1.60;99.90;;;;;;4985603;28;20042;-70
2023/02/14 09:53:31;;;;;;;47.85;10.48;;;1.80;99.90;;;;;;4977680;28;20032;-70
2023/02/14 09:56:18;;;;;;;37.25;12.57;;;1.70;99.90;;;;;;4986309;28;20030;-70
2023/02/14 09:58:49;;;;;;;19.08;7.95;;;1.80;99.90;;;;;;4987741;28;20026;-70
2023/02/14 10:01:25;;;;;;;;;;;1.80;99.90;;;;;;4983001;28;21517;-70
2023/02/14 10:04:01;;;;;;;24.83;8.27;;;1.70;99.90;;;;;;4971652;28;19920;-70
2023/02/14 10:06:39;;;;;;;27.00;9.63;;;1.80;99.90;;;;;;4981655;28;20068;-70
2023/02/14 10:09:28;;;;;;;22.70;9.52;;;2.00;99.90;;;;;;4980439;28;20824;-70
2023/02/14 10:11:59;;;;;;;23.05;9.18;;;1.80;99.90;;;;;;4970592;28;20406;-70
2023/02/14 10:14:35;;;;;;;27.15;9.45;;;1.90;99.90;;;;;;4949715;28;20043;-70
2023/02/14 10:17:15;;;;;;;13.93;10.15;;;2.00;99.90;;;;;;4954961;28;20526;-70
2023/02/14 10:19:49;;;;;;;23.48;9.00;;;1.80;99.90;;;;;;4967830;28;20625;-70
2023/02/14 10:22:20;;;;;;;22.90;9.23;;;2.00;99.90;;;;;;4965482;28;20027;-70
2023/02/14 10:25:00;;;;;;;18.58;10.93;;;2.00;99.90;;;;;;4977672;28;20038;-70
2023/02/14 10:27:34;;;;;;;17.60;7.65;;;2.10;99.90;;;;;;4955537;28;20026;-70
2023/02/14 10:30:03;;;;;;;25.52;10.75;;;1.90;99.90;;;;;;4971120;28;20113;-70
2023/02/14 10:32:46;;;;;;;30.80;11.80;;;1.80;99.90;;;;;;4970525;28;20478;-70
2023/02/14 10:35:39;;;;;;;27.02;8.75;;;1.90;99.90;;;;;;4970062;28;20031;-70
2023/02/14 10:38:39;;;;;;;23.48;9.07;;;1.90;99.90;;;;;;4971970;28;20093;-71
2023/02/14 10:41:38;;;;;;;29.85;11.90;;;1.90;99.90;;;;;;4969168;28;20049;-70
2023/02/14 10:44:16;;;;;;;25.67;11.02;;;2.10;99.90;;;;;;4975311;28;20038;-71
2023/02/14 10:47:13;;;;;;;17.00;9.40;;;2.00;99.90;;;;;;4976023;28;20069;-70
2023/02/14 10:50:03;;;;;;;20.83;8.05;;;2.10;99.90;;;;;;4979721;28;20042;-70
2023/02/14 10:52:42;;;;;;;21.63;10.27;;;2.20;99.90;;;;;;4978645;28;20110;-71
2023/02/14 10:55:25;;;;;;;18.77;7.10;;;2.40;99.90;;;;;;4970866;28;20033;-70
2023/02/14 10:57:55;;;;;;;21.42;10.43;;;2.30;99.90;;;;;;4955217;28;20041;-70
2023/02/14 11:01:12;;;;;;;32.40;9.13;;;2.30;99.90;;;;;;4952802;28;20046;-70
2023/02/14 11:03:51;;;;;;;26.73;9.98;;;2.20;99.90;;;;;;4979070;28;20093;-71
2023/02/14 11:06:16;;;;;;;20.83;9.40;;;2.70;99.90;;;;;;4972678;28;20038;-70
2023/02/14 11:08:42;;;;;;;27.48;10.98;;;2.60;99.90;;;;;;4975923;28;20777;-72
2023/02/14 11:11:32;;;;;;;23.20;11.27;;;2.60;99.90;;;;;;4952738;28;20031;-71
2023/02/14 11:13:58;;;;;;;24.27;9.52;;;2.50;99.90;;;;;;4955068;28;20555;-74
2023/02/14 11:16:36;;;;;;;19.05;8.68;;;2.50;99.90;;;;;;4963685;28;20044;-74
2023/02/14 11:19:19;;;;;;;17.20;8.20;;;2.80;99.90;;;;;;4967443;28;20033;-74
2023/02/14 11:21:49;;;;;;;18.98;9.57;;;2.70;99.90;;;;;;4965346;28;20074;-74
2023/02/14 11:24:35;;;;;;;21.25;9.90;;;2.80;99.90;;;;;;4964959;28;20034;-75
2023/02/14 11:27:09;;;;;;;25.85;9.95;;;2.80;99.90;;;;;;4964672;28;20045;-75
2023/02/14 11:29:51;;;;;;;18.88;9.30;;;2.60;99.90;;;;;;4983530;28;20399;-74
2023/02/14 11:32:23;;;;;;;26.05;9.23;;;2.50;99.90;;;;;;4952133;28;20046;-73
2023/02/14 11:34:59;;;;;;;22.40;10.07;;;2.60;99.90;;;;;;4967827;28;20027;-71
2023/02/14 11:37:38;;;;;;;34.95;11.95;;;2.40;99.90;;;;;;4973584;28;20077;-69
2023/02/14 11:40:05;;;;;;;20.15;10.82;;;2.70;99.90;;;;;;4962545;28;20072;-71
2023/02/14 11:42:46;;;;;;;25.25;10.18;;;2.80;99.90;;;;;;4976959;28;20035;-72
2023/02/14 11:45:33;;;;;;;31.73;10.20;;;3.00;99.90;;;;;;4970673;28;20494;-74
2023/02/14 11:48:24;;;;;;;26.65;9.38;;;3.00;99.90;;;;;;4981065;28;20154;-72
2023/02/14 11:51:15;;;;;;;28.75;8.82;;;2.90;99.90;;;;;;4970876;28;20038;-70
2023/02/14 11:53:52;;;;;;;21.23;9.68;;;3.00;99.90;;;;;;4962762;28;20038;-68
2023/02/14 11:56:19;;;;;;;21.25;9.45;;;2.80;99.90;;;;;;4973223;28;20394;-70
2023/02/14 11:59:03;;;;;;;22.67;8.52;;;2.90;99.90;;;;;;4981461;28;20022;-69
2023/02/14 12:01:33;;;;;;;22.17;9.75;;;3.10;99.90;;;;;;4986666;28;20026;-69
2023/02/14 12:04:06;;;;;;;17.27;7.55;;;2.90;99.90;;;;;;4981395;28;20076;-69
2023/02/14 12:06:35;;;;;;;28.30;11.13;;;2.90;99.90;;;;;;4976596;28;20105;-69
2023/02/14 12:09:23;;;;;;;17.95;8.48;;;3.10;99.90;;;;;;4984447;28;20618;-70
2023/02/14 12:12:03;;;;;;;33.17;12.25;;;2.90;99.90;;;;;;4986960;28;20030;-69
2023/02/14 12:14:34;;;;;;;28.55;10.15;;;3.00;99.90;;;;;;4976611;28;20031;-70
2023/02/14 12:17:16;;;;;;;23.52;8.55;;;2.90;99.90;;;;;;4969143;28;20069;-69
2023/02/14 12:20:07;;;;;;;21.08;9.57;;;3.00;99.90;;;;;;4985475;28;20046;-69
2023/02/14 12:22:44;;;;;;;22.88;9.70;;;3.30;99.90;;;;;;4981449;28;20533;-69
2023/02/14 12:25:23;;;;;;;26.25;11.45;;;3.00;99.90;;;;;;4985560;28;20083;-69
2023/02/14 12:28:00;;;;;;;27.95;10.88;;;3.20;99.90;;;;;;4963185;28;20680;-69
2023/02/14 12:30:31;;;;;;;34.42;11.48;;;3.10;99.90;;;;;;4934936;29;20046;-69
2023/02/14 12:32:57;;;;;;;23.35;8.43;;;3.40;99.90;;;;;;4977640;28;20042;-69
2023/02/14 12:36:19;;;;;;;22.42;9.52;;;3.60;99.90;;;;;;4990220;28;20038;-69
2023/02/14 12:39:16;;;;;;;25.10;11.38;;;3.80;99.90;;;;;;4980544;28;20038;-69
2023/02/14 12:42:12;;;;;;;28.67;11.32;;;3.70;99.90;;;;;;4982021;28;20053;-69
2023/02/14 12:45:09;;;;;;;23.33;10.82;;;3.60;99.90;;;;;;4969221;28;20035;-69
2023/02/14 12:48:11;;;;;;;21.50;9.43;;;3.60;99.90;;;;;;4980814;28;20039;-68
2023/02/14 12:51:08;;;;;;;37.13;12.73;;;3.50;99.90;;;;;;4950257;28;20043;-69
2023/02/14 12:54:21;;;;;;;25.35;10.30;;;3.40;99.90;;;;;;4973062;28;20093;-69
2023/02/14 12:57:13;;;;;;;19.33;8.68;;;3.40;99.90;;;;;;4963501;28;20463;-69
2023/02/14 13:00:17;;;;;;;17.57;9.27;;;3.50;99.90;;;;;;4958205;28;20038;-68
2023/02/14 13:03:07;;;;;;;27.48;10.60;;;3.80;99.90;;;;;;4971760;28;20734;-69
2023/02/14 13:06:22;;;;;;;30.10;12.25;;;3.80;99.90;;;;;;4964494;28;20059;-69
2023/02/14 13:09:02;;;;;;;27.52;11.88;;;3.60;99.90;;;;;;4946141;28;20514;-69
2023/02/14 13:12:09;;;;;;;26.02;11.70;;;3.50;99.90;;;;;;4963871;28;20129;-69
2023/02/14 13:14:51;;;;;;;34.92;12.55;;;3.70;99.90;;;;;;4962920;28;20442;-70
2023/02/14 13:17:42;;;;;;;24.75;12.32;;;4.10;99.90;;;;;;4964416;28;20505;-71
2023/02/14 13:20:41;;;;;;;33.10;10.95;;;4.00;99.90;;;;;;4970743;28;20039;-69
2023/02/14 13:23:28;;;;;;;32.63;11.45;;;3.90;99.90;;;;;;4965587;28;20046;-69
2023/02/14 13:26:36;;;;;;;27.30;11.82;;;3.70;99.90;;;;;;4954157;28;20502;-69
2023/02/14 13:29:18;;;;;;;35.22;12.77;;;3.70;99.90;;;;;;4968260;28;20122;-69
2023/02/14 13:31:45;;;;;;;33.75;10.95;;;3.90;99.90;;;;;;4942621;28;20027;-69
2023/02/14 13:34:42;;;;;;;30.92;12.43;;;3.60;99.90;;;;;;4980659;28;20049;-69
2023/02/14 13:37:12;;;;;;;33.65;12.60;;;3.60;99.90;;;;;;4974202;28;20034;-69
2023/02/14 13:39:45;;;;;;;40.63;10.27;;;3.70;99.90;;;;;;4967000;28;20030;-68
2023/02/14 13:42:11;;;;;;;29.45;13.27;;;3.70;99.90;;;;;;4974764;28;20371;-68